Terminal Aerodrome Forecast
Issued by NWS Wilmington, OH

Current Version | Previous Version | Text Only | Print | Product List | Glossary Off
Versions: 1 2 3 4 5 6 7 8 9 10 11 12 13 14 15 16 17 18

000
FTUS41 KILN 192345
TAFILN
TAF
KILN 192345Z 2000/2024 VRB03KT P6SM FEW090
     FM200900 VRB03KT 4SM BR FEW250
     FM201100 VRB03KT 2SM BR FEW170
     FM201300 00000KT 6SM BR FEW200
     FM201400 17004KT P6SM FEW040=

USA.gov is the U.S. government's official web portal to all federal, state and local government web resources and services.